Time;durP1;ratioP1;P1;durP2;ratioP2;P2;SDS_P1;SDS_P2;PMS_P1;PMS_P2;Temp;Humidity;BMP_temperature;BMP_pressure;BME280_temperature;BME280_humidity;BME280_pressure;Samples;Min_cycle;Max_cycle;Signal;HPM_P1;HPM_P2
2021/12/05 00:18:46;;;;;;;20.77;15.27;;;4.00;99.90;;;;;;5025287;28;20985;-67
2021/12/05 00:21:38;;;;;;;20.70;15.13;;;4.10;99.90;;;;;;5025851;28;21024;-67
2021/12/05 00:24:09;;;;;;;16.67;15.10;;;4.10;99.90;;;;;;5016168;28;20564;-67
2021/12/05 00:26:38;;;;;;;17.00;15.60;;;4.00;99.90;;;;;;5022900;28;20469;-68
2021/12/05 00:29:14;;;;;;;22.50;15.40;;;4.00;99.90;;;;;;5015690;28;20466;-68
2021/12/05 00:31:56;;;;;;;21.47;15.30;;;3.90;99.90;;;;;;5025696;28;20499;-67
2021/12/05 00:34:39;;;;;;;17.03;14.40;;;3.90;99.90;;;;;;5018926;28;20460;-67
2021/12/05 00:57:05;;;;;;;30.87;14.87;;;3.80;99.90;;;;;;5021751;28;20498;-68
2021/12/05 00:59:55;;;;;;;16.83;13.93;;;3.80;99.90;;;;;;5023521;28;20464;-68
2021/12/05 01:02:37;;;;;;;20.43;15.83;;;3.80;99.90;;;;;;5013954;28;20469;-68
2021/12/05 01:05:26;;;;;;;16.23;14.60;;;3.80;99.90;;;;;;5021027;28;20559;-68
2021/12/05 01:08:12;;;;;;;17.27;15.10;;;3.90;99.90;;;;;;5022768;28;20514;-68
2021/12/05 01:10:57;;;;;;;16.00;14.43;;;3.80;99.90;;;;;;5019389;28;20468;-68
2021/12/05 01:13:35;;;;;;;15.80;14.53;;;3.80;99.90;;;;;;5018118;28;20534;-67
2021/12/05 01:16:07;;;;;;;32.00;15.20;;;3.80;99.90;;;;;;5017012;28;20582;-68
2021/12/05 01:18:36;;;;;;;15.20;13.73;;;3.90;99.90;;;;;;5015322;28;20536;-68
2021/12/05 01:21:08;;;;;;;16.30;14.57;;;3.90;99.90;;;;;;5022580;28;20957;-68
2021/12/05 01:23:44;;;;;;;16.00;14.53;;;3.90;99.90;;;;;;5021721;28;20547;-68
2021/12/05 01:26:14;;;;;;;19.23;14.57;;;3.90;99.90;;;;;;5021687;28;20464;-68
2021/12/05 01:29:00;;;;;;;21.03;13.60;;;4.00;99.90;;;;;;5019173;28;20588;-67
2021/12/05 01:31:37;;;;;;;19.00;14.50;;;4.00;99.90;;;;;;5019207;28;20465;-68
2021/12/05 01:34:17;;;;;;;13.63;12.73;;;4.00;99.90;;;;;;5012153;28;20465;-68
2021/12/05 01:36:56;;;;;;;14.30;13.27;;;4.00;99.90;;;;;;5022728;28;20509;-68
2021/12/05 01:39:35;;;;;;;17.67;14.20;;;3.90;99.90;;;;;;5019133;28;20480;-68
2021/12/05 01:42:48;;;;;;;16.87;14.37;;;3.90;99.90;;;;;;5019293;28;20495;-68
2021/12/05 01:48:35;;;;;;;15.90;14.60;;;3.80;99.90;;;;;;5021717;28;20457;-68
2021/12/05 01:54:19;;;;;;;15.10;13.80;;;3.70;99.90;;;;;;5019853;28;20466;-68
2021/12/05 01:59:43;;;;;;;15.13;13.90;;;3.60;99.90;;;;;;5021863;28;20460;-68
2021/12/05 02:08:05;;;;;;;16.53;14.20;;;3.60;99.90;;;;;;5031419;28;20477;-67
2021/12/05 02:10:59;;;;;;;15.73;14.17;;;3.60;99.90;;;;;;5018661;28;20487;-68
2021/12/05 02:30:10;;;;;;;15.07;13.80;;;3.60;99.90;;;;;;5024410;28;20813;-68
2021/12/05 02:33:08;;;;;;;22.20;14.70;;;3.60;99.90;;;;;;5020317;28;20465;-68
2021/12/05 02:35:53;;;;;;;15.27;13.77;;;3.60;99.90;;;;;;5014669;28;20489;-68
2021/12/05 02:38:50;;;;;;;16.70;13.97;;;3.60;99.90;;;;;;5016059;28;20499;-68
2021/12/05 02:41:19;;;;;;;18.43;13.30;;;3.60;99.90;;;;;;5018914;28;20874;-68
2021/12/05 02:43:48;;;;;;;23.07;13.60;;;3.60;99.90;;;;;;5023305;28;20453;-68
2021/12/05 02:46:21;;;;;;;14.40;12.90;;;3.60;99.90;;;;;;5024211;28;21013;-68
2021/12/05 02:48:48;;;;;;;20.53;14.70;;;3.60;99.90;;;;;;5020846;28;21032;-68
2021/12/05 02:51:24;;;;;;;23.47;13.57;;;3.60;99.90;;;;;;5025690;28;20470;-68
2021/12/05 02:54:02;;;;;;;13.77;12.67;;;3.60;99.90;;;;;;5020051;28;20460;-67
2021/12/05 02:56:31;;;;;;;17.30;13.57;;;3.50;99.90;;;;;;5018793;28;21009;-68
2021/12/05 02:59:06;;;;;;;14.40;13.10;;;3.50;99.90;;;;;;5024821;28;20468;-68
2021/12/05 03:01:38;;;;;;;13.43;12.53;;;3.50;99.90;;;;;;5024172;28;20796;-68
2021/12/05 03:04:07;;;;;;;16.73;13.47;;;3.50;99.90;;;;;;5026251;28;21040;-68
2021/12/05 03:06:35;;;;;;;13.50;12.20;;;3.50;99.90;;;;;;5019199;28;20509;-68
2021/12/05 03:09:12;;;;;;;14.83;13.10;;;3.50;99.90;;;;;;5018652;28;20951;-67
2021/12/05 03:11:40;;;;;;;15.77;14.13;;;3.50;99.90;;;;;;5015219;28;20918;-67
2021/12/05 03:14:08;;;;;;;20.60;13.73;;;3.50;99.90;;;;;;5015884;28;20457;-67
2021/12/05 03:16:38;;;;;;;16.70;13.80;;;3.50;99.90;;;;;;5023172;28;20522;-67
2021/12/05 03:19:08;;;;;;;14.67;13.37;;;3.40;99.90;;;;;;5022534;28;20877;-68
2021/12/05 03:21:36;;;;;;;14.40;13.43;;;3.40;99.90;;;;;;5016570;28;20520;-68
2021/12/05 03:24:06;;;;;;;15.20;13.73;;;3.30;99.90;;;;;;5020950;28;20868;-68
2021/12/05 03:26:36;;;;;;;14.70;13.80;;;3.30;99.90;;;;;;5017622;28;20465;-67
2021/12/05 03:29:06;;;;;;;15.53;14.10;;;3.30;99.90;;;;;;5015232;28;20509;-68
2021/12/05 03:31:33;;;;;;;15.07;13.87;;;3.20;99.90;;;;;;5024943;28;20468;-68
2021/12/05 03:34:01;;;;;;;15.43;13.80;;;3.20;99.90;;;;;;5021144;28;20633;-68
2021/12/05 03:36:28;;;;;;;15.20;13.73;;;3.10;99.90;;;;;;5022090;28;20501;-68
2021/12/05 03:38:56;;;;;;;15.20;14.23;;;3.00;99.90;;;;;;5018871;28;20482;-68
2021/12/05 03:41:24;;;;;;;15.50;14.50;;;3.00;99.90;;;;;;5021689;28;20460;-68
2021/12/05 03:43:54;;;;;;;16.93;15.37;;;2.90;99.90;;;;;;5015779;28;20472;-67
2021/12/05 03:46:22;;;;;;;16.30;14.70;;;2.80;99.90;;;;;;5023311;28;20542;-67
2021/12/05 03:48:54;;;;;;;15.60;14.23;;;2.70;99.90;;;;;;5021226;28;20477;-67
2021/12/05 03:51:24;;;;;;;16.10;14.40;;;2.80;99.90;;;;;;5024150;28;20975;-68
2021/12/05 03:53:51;;;;;;;16.27;14.90;;;2.80;99.90;;;;;;5015455;28;20500;-67
2021/12/05 03:56:19;;;;;;;16.13;14.63;;;2.80;99.90;;;;;;5015385;28;20499;-67
2021/12/05 03:58:48;;;;;;;15.00;14.00;;;2.80;99.90;;;;;;5021282;28;20460;-67
2021/12/05 04:01:15;;;;;;;16.43;14.67;;;2.80;99.90;;;;;;5023216;28;20499;-67
2021/12/05 04:03:44;;;;;;;15.10;14.00;;;2.80;99.90;;;;;;5025741;28;20499;-67
2021/12/05 04:06:13;;;;;;;14.57;13.67;;;2.90;99.90;;;;;;5025080;28;21162;-68
2021/12/05 04:08:41;;;;;;;15.40;14.07;;;2.90;99.90;;;;;;5023868;28;20476;-67
2021/12/05 04:11:11;;;;;;;16.57;14.97;;;2.90;99.90;;;;;;5023478;28;20510;-67
2021/12/05 04:13:38;;;;;;;19.23;14.67;;;2.80;99.90;;;;;;5023342;28;20468;-68
2021/12/05 04:16:07;;;;;;;16.00;14.80;;;2.70;99.90;;;;;;5023814;28;20489;-67
2021/12/05 04:18:35;;;;;;;16.70;15.20;;;2.70;99.90;;;;;;5020048;28;20462;-67
2021/12/05 04:21:04;;;;;;;16.57;15.40;;;2.70;99.90;;;;;;5020299;28;20522;-67
2021/12/05 04:23:31;;;;;;;16.37;15.07;;;2.70;99.90;;;;;;5020020;28;20521;-67
2021/12/05 04:25:58;;;;;;;15.40;14.43;;;2.70;99.90;;;;;;5021398;28;20472;-67
2021/12/05 04:28:26;;;;;;;15.80;14.80;;;2.60;99.90;;;;;;5022775;28;20465;-67
2021/12/05 04:30:53;;;;;;;14.03;13.33;;;2.70;99.90;;;;;;5019922;28;20961;-68
2021/12/05 04:33:22;;;;;;;15.27;14.37;;;2.70;99.90;;;;;;5017355;28;20461;-67
2021/12/05 04:35:49;;;;;;;17.83;16.50;;;2.70;99.90;;;;;;5022106;28;20476;-67
2021/12/05 04:38:16;;;;;;;15.53;14.73;;;2.60;99.90;;;;;;5017960;28;20850;-67
2021/12/05 04:40:45;;;;;;;16.17;15.00;;;2.60;99.90;;;;;;5015546;28;20476;-67
2021/12/05 04:43:12;;;;;;;16.00;14.40;;;2.60;99.90;;;;;;5021443;28;20869;-67
2021/12/05 04:45:41;;;;;;;15.83;14.83;;;2.60;99.90;;;;;;5019503;28;20495;-67
2021/12/05 04:48:09;;;;;;;15.40;14.30;;;2.60;99.90;;;;;;5021300;28;20468;-67
2021/12/05 04:50:38;;;;;;;16.30;15.10;;;2.60;99.90;;;;;;5022790;28;20464;-67
2021/12/05 04:53:05;;;;;;;14.30;13.53;;;2.60;99.90;;;;;;5018362;28;20467;-67
2021/12/05 04:55:33;;;;;;;15.67;14.30;;;2.60;99.90;;;;;;5021295;28;20473;-67
2021/12/05 04:58:04;;;;;;;16.97;15.43;;;2.60;99.90;;;;;;5022480;28;20461;-68
2021/12/05 05:00:34;;;;;;;17.07;15.43;;;2.60;99.90;;;;;;5017617;28;20472;-67
2021/12/05 05:03:01;;;;;;;15.40;14.60;;;2.60;99.90;;;;;;5019951;28;20483;-68
2021/12/05 05:05:30;;;;;;;14.97;14.07;;;2.70;99.90;;;;;;5021071;28;20452;-67
2021/12/05 05:07:59;;;;;;;15.20;14.40;;;2.70;99.90;;;;;;5018262;28;20488;-68
2021/12/05 05:10:28;;;;;;;15.00;14.20;;;2.80;99.90;;;;;;5016907;28;20882;-67
2021/12/05 05:12:56;;;;;;;14.60;13.57;;;2.80;99.90;;;;;;5019204;28;20559;-67
2021/12/05 05:15:26;;;;;;;16.23;15.10;;;2.90;99.90;;;;;;5021453;28;20453;-68
2021/12/05 05:17:55;;;;;;;14.60;13.60;;;3.00;99.90;;;;;;5019405;28;20528;-67
2021/12/05 05:20:27;;;;;;;13.93;13.27;;;3.00;99.90;;;;;;5021527;28;20467;-67
2021/12/05 05:23:15;;;;;;;15.00;14.10;;;3.00;99.90;;;;;;5015912;28;20468;-67
2021/12/05 05:29:07;;;;;;;15.70;14.63;;;3.00;99.90;;;;;;4980005;28;21009;-67
2021/12/05 05:45:58;;;;;;;17.80;14.37;;;3.10;99.90;;;;;;5079351;27;20551;-67
2021/12/05 05:48:35;;;;;;;13.90;13.00;;;3.10;99.90;;;;;;5074328;28;21024;-67
2021/12/05 05:51:04;;;;;;;15.00;13.80;;;3.20;99.90;;;;;;5070637;28;20486;-68
2021/12/05 05:53:32;;;;;;;14.63;13.50;;;3.30;99.90;;;;;;5081136;28;20976;-67
2021/12/05 05:55:58;;;;;;;13.90;13.20;;;3.30;99.90;;;;;;5072521;28;20517;-67
2021/12/05 05:58:35;;;;;;;13.93;13.23;;;3.40;99.90;;;;;;5082048;28;20949;-67
2021/12/05 06:01:07;;;;;;;14.10;13.40;;;3.50;99.90;;;;;;5071619;28;20455;-68
2021/12/05 06:03:34;;;;;;;12.93;12.23;;;3.60;99.90;;;;;;5077203;28;20462;-67
2021/12/05 06:06:04;;;;;;;12.67;11.97;;;3.60;99.90;;;;;;5074047;28;20470;-67
2021/12/05 06:08:33;;;;;;;13.50;12.03;;;3.70;99.90;;;;;;5078269;28;21937;-67
2021/12/05 06:11:03;;;;;;;13.20;12.30;;;3.70;99.90;;;;;;5073164;28;20910;-68
2021/12/05 06:13:31;;;;;;;13.40;12.50;;;3.70;99.90;;;;;;5070491;28;20469;-68
2021/12/05 06:15:58;;;;;;;17.20;13.40;;;3.60;99.90;;;;;;5076754;28;20454;-68
2021/12/05 06:18:27;;;;;;;13.27;12.63;;;3.60;99.90;;;;;;5080553;28;20458;-67
2021/12/05 06:20:54;;;;;;;13.83;12.73;;;3.60;99.90;;;;;;5074469;28;20457;-68
2021/12/05 06:23:23;;;;;;;13.70;12.83;;;3.60;99.90;;;;;;5076021;28;20493;-67
2021/12/05 06:25:51;;;;;;;13.53;12.73;;;3.70;99.90;;;;;;5070660;28;20779;-67
2021/12/05 06:28:25;;;;;;;13.20;12.30;;;3.70;99.90;;;;;;5080121;28;20469;-68
2021/12/05 06:30:56;;;;;;;12.93;12.20;;;3.60;99.90;;;;;;5077427;28;20466;-68
2021/12/05 06:39:19;;;;;;;13.07;12.37;;;3.60;99.90;;;;;;5076851;28;20501;-68
2021/12/05 06:42:04;;;;;;;12.90;12.20;;;3.70;99.90;;;;;;5070004;28;20525;-68
2021/12/05 06:47:16;;;;;;;13.80;12.93;;;3.80;99.90;;;;;;5073380;28;20449;-68
2021/12/05 06:49:45;;;;;;;13.20;12.60;;;3.90;99.90;;;;;;5070913;28;20472;-67
2021/12/05 06:52:12;;;;;;;13.63;12.87;;;3.70;99.90;;;;;;5070888;28;20465;-67
2021/12/05 06:54:41;;;;;;;13.80;12.90;;;3.70;99.90;;;;;;5068486;28;20833;-67
2021/12/05 06:57:09;;;;;;;14.03;13.13;;;3.60;99.90;;;;;;5052072;28;20471;-68
2021/12/05 06:59:39;;;;;;;14.47;13.67;;;3.50;99.90;;;;;;5050265;28;20477;-68
2021/12/05 07:02:07;;;;;;;13.90;13.10;;;3.40;99.90;;;;;;5055416;28;20487;-69
2021/12/05 07:04:54;;;;;;;14.43;13.63;;;3.40;99.90;;;;;;5058023;28;20498;-70
2021/12/05 07:07:23;;;;;;;14.63;13.60;;;3.40;99.90;;;;;;5056262;28;20516;-67
2021/12/05 07:09:51;;;;;;;14.60;13.40;;;3.40;99.90;;;;;;5056656;28;20812;-68
2021/12/05 07:15:05;;;;;;;14.83;13.83;;;3.50;99.90;;;;;;5055225;28;20526;-68
2021/12/05 07:20:11;;;;;;;14.50;13.70;;;3.50;99.90;;;;;;5057574;28;20494;-71
2021/12/05 07:22:51;;;;;;;14.80;13.90;;;3.60;99.90;;;;;;5057968;28;20872;-68
2021/12/05 07:25:29;;;;;;;15.80;14.33;;;3.60;99.90;;;;;;5055744;28;20516;-70
2021/12/05 07:41:49;;;;;;;17.00;15.70;;;3.80;99.90;;;;;;5056694;28;20610;-67
2021/12/05 07:44:16;;;;;;;16.57;15.47;;;3.90;99.90;;;;;;5058611;28;20494;-68
2021/12/05 07:46:45;;;;;;;17.17;15.77;;;3.90;99.90;;;;;;5056904;28;20460;-72
2021/12/05 07:49:13;;;;;;;15.73;14.80;;;3.90;99.90;;;;;;5056177;28;20471;-67
2021/12/05 07:51:45;;;;;;;17.07;15.60;;;4.00;99.90;;;;;;5055932;28;20456;-67
2021/12/05 07:54:26;;;;;;;18.50;15.60;;;4.00;99.90;;;;;;5053246;28;20487;-69
2021/12/05 07:57:02;;;;;;;16.33;14.83;;;4.00;99.90;;;;;;5053306;28;20471;-68
2021/12/05 07:59:43;;;;;;;16.30;15.30;;;4.00;99.90;;;;;;5052817;28;20495;-70
2021/12/05 08:16:01;;;;;;;15.97;14.80;;;4.00;99.90;;;;;;5058129;28;20828;-69
2021/12/05 08:18:29;;;;;;;14.83;13.93;;;4.20;99.90;;;;;;5056136;28;20463;-71
2021/12/05 08:20:58;;;;;;;15.77;14.87;;;4.20;99.90;;;;;;5058376;28;20463;-68
2021/12/05 08:23:25;;;;;;;15.20;14.40;;;4.20;99.90;;;;;;5056799;28;20471;-68
2021/12/05 08:26:03;;;;;;;16.57;15.23;;;4.10;99.90;;;;;;5056542;28;20491;-71
2021/12/05 08:28:48;;;;;;;15.90;14.70;;;4.20;99.90;;;;;;5053335;28;20463;-72
2021/12/05 08:31:25;;;;;;;15.97;14.97;;;4.20;99.90;;;;;;5054379;28;20753;-68
2021/12/05 08:34:03;;;;;;;15.00;14.20;;;4.20;99.90;;;;;;5055857;28;20477;-68
2021/12/05 08:36:57;;;;;;;15.90;14.60;;;4.20;99.90;;;;;;5049166;28;20455;-68
2021/12/05 09:21:22;;;;;;;23.00;19.20;;;4.50;99.90;;;;;;5051599;28;20857;-68
2021/12/05 09:50:59;;;;;;;21.73;17.50;;;4.70;99.90;;;;;;5054047;28;20480;-68
2021/12/05 10:03:09;;;;;;;18.33;16.70;;;4.60;99.90;;;;;;5016831;28;21019;-68
2021/12/05 10:14:23;;;;;;;17.90;16.47;;;4.70;99.90;;;;;;5051451;28;20454;-68
2021/12/05 10:17:06;;;;;;;18.83;17.33;;;4.70;99.90;;;;;;5055124;28;21000;-67
2021/12/05 10:34:20;;;;;;;19.33;16.10;;;4.80;99.90;;;;;;5059970;28;20458;-68
2021/12/05 10:36:47;;;;;;;16.53;15.43;;;4.90;99.90;;;;;;5059317;28;20459;-68
2021/12/05 10:39:23;;;;;;;20.37;18.97;;;5.00;99.90;;;;;;5054745;28;20480;-68
2021/12/05 10:42:11;;;;;;;23.40;21.30;;;5.10;99.90;;;;;;5062510;28;20474;-68
2021/12/05 10:44:45;;;;;;;25.30;23.33;;;5.10;99.90;;;;;;5058317;28;20510;-68
2021/12/05 10:47:12;;;;;;;26.60;24.03;;;5.20;99.90;;;;;;5059938;28;20528;-67
2021/12/05 10:49:40;;;;;;;26.27;24.10;;;5.30;99.90;;;;;;5061570;28;20470;-68
2021/12/05 10:52:16;;;;;;;25.77;23.70;;;5.30;99.90;;;;;;5058473;28;20492;-67
2021/12/05 10:54:56;;;;;;;27.53;24.93;;;5.30;99.90;;;;;;5057851;28;20474;-67
2021/12/05 10:57:29;;;;;;;27.50;25.03;;;5.30;99.90;;;;;;5053831;28;20459;-67
2021/12/05 10:59:56;;;;;;;27.57;25.47;;;5.40;99.90;;;;;;5053565;28;20559;-67
2021/12/05 11:02:26;;;;;;;26.33;24.23;;;5.50;99.90;;;;;;5056766;28;20455;-68
2021/12/05 11:04:54;;;;;;;27.87;25.63;;;5.50;99.90;;;;;;5055723;28;20949;-67
2021/12/05 11:07:23;;;;;;;26.57;24.47;;;5.50;99.90;;;;;;5053388;28;20467;-70
2021/12/05 11:09:57;;;;;;;26.73;24.73;;;5.80;99.90;;;;;;5056601;28;20471;-67
2021/12/05 11:12:26;;;;;;;26.90;24.40;;;6.10;99.90;;;;;;5053219;28;20483;-68
2021/12/05 11:14:56;;;;;;;26.17;24.17;;;6.30;99.90;;;;;;5057359;28;20463;-67
2021/12/05 11:17:24;;;;;;;27.10;24.80;;;6.40;99.90;;;;;;5055862;28;20481;-68
2021/12/05 11:19:53;;;;;;;25.60;23.80;;;6.40;99.90;;;;;;5060922;28;20450;-67
2021/12/05 11:22:22;;;;;;;26.43;24.43;;;6.60;99.90;;;;;;5058305;28;20463;-67
2021/12/05 11:24:54;;;;;;;25.83;23.53;;;6.60;99.90;;;;;;5056011;28;20909;-67
2021/12/05 11:27:30;;;;;;;27.13;24.93;;;6.80;99.90;;;;;;5049975;28;20473;-68
2021/12/05 11:30:03;;;;;;;27.27;24.73;;;6.70;99.90;;;;;;5055706;28;20467;-67
2021/12/05 11:32:37;;;;;;;25.50;23.70;;;6.70;99.90;;;;;;5054231;28;20460;-67
2021/12/05 11:35:32;;;;;;;26.77;24.50;;;6.60;99.90;;;;;;5050595;28;20536;-67
2021/12/05 11:38:06;;;;;;;26.27;24.20;;;6.60;99.90;;;;;;5047824;28;20459;-67
2021/12/05 11:40:49;;;;;;;26.30;24.20;;;6.70;99.90;;;;;;5058193;28;20981;-67
2021/12/05 11:43:19;;;;;;;26.37;24.47;;;6.60;99.90;;;;;;5056498;28;20557;-67
2021/12/05 11:46:08;;;;;;;25.40;23.60;;;6.70;99.90;;;;;;5053255;28;20503;-67
2021/12/05 11:48:37;;;;;;;26.87;24.73;;;6.70;99.90;;;;;;5053080;28;20961;-69
2021/12/05 11:51:22;;;;;;;27.70;25.67;;;6.70;99.90;;;;;;5049857;28;20461;-68
2021/12/05 11:53:52;;;;;;;26.80;24.13;;;6.70;99.90;;;;;;5051754;28;20795;-67
2021/12/05 11:56:23;;;;;;;27.83;25.37;;;6.60;99.90;;;;;;5050521;28;20468;-69
2021/12/05 11:59:10;;;;;;;26.13;24.13;;;6.50;99.90;;;;;;5050765;28;20469;-67
2021/12/05 12:01:41;;;;;;;27.30;25.10;;;6.40;99.90;;;;;;5056145;28;20454;-68
2021/12/05 12:04:10;;;;;;;29.63;26.93;;;6.50;99.90;;;;;;5060576;28;20485;-67
2021/12/05 12:06:37;;;;;;;28.27;26.07;;;6.40;99.90;;;;;;5053148;28;20487;-67
2021/12/05 12:09:05;;;;;;;27.90;25.50;;;6.40;99.90;;;;;;5051468;28;20468;-68
2021/12/05 12:11:34;;;;;;;26.87;24.73;;;6.40;99.90;;;;;;5053946;28;20476;-67
2021/12/05 12:14:01;;;;;;;31.90;27.53;;;6.40;99.90;;;;;;5052371;28;20475;-67
2021/12/05 12:16:33;;;;;;;27.13;25.07;;;6.40;99.90;;;;;;5053934;28;20473;-67
2021/12/05 12:19:01;;;;;;;27.37;24.80;;;6.50;99.90;;;;;;5046714;28;20573;-68
2021/12/05 12:21:38;;;;;;;26.27;24.00;;;6.40;99.90;;;;;;5044647;28;20820;-68
2021/12/05 12:24:05;;;;;;;27.37;24.90;;;6.30;99.90;;;;;;5054407;28;20514;-67
2021/12/05 12:26:34;;;;;;;27.30;25.30;;;6.40;99.90;;;;;;5048916;28;20493;-67
2021/12/05 12:29:02;;;;;;;29.73;27.43;;;6.50;99.90;;;;;;5053163;28;20495;-67
2021/12/05 12:31:34;;;;;;;28.77;26.37;;;6.30;99.90;;;;;;5048738;28;20495;-67
2021/12/05 12:34:05;;;;;;;28.70;26.33;;;6.30;99.90;;;;;;5056160;28;20509;-68
2021/12/05 12:36:35;;;;;;;27.93;25.57;;;6.20;99.90;;;;;;5047249;28;20959;-68
2021/12/05 12:39:06;;;;;;;27.03;24.83;;;6.20;99.90;;;;;;5053426;28;20718;-67
2021/12/05 12:41:35;;;;;;;30.50;27.80;;;6.30;99.90;;;;;;5050287;28;21352;-68
2021/12/05 12:44:04;;;;;;;31.13;28.43;;;6.50;99.90;;;;;;5050021;28;20496;-67
2021/12/05 12:46:36;;;;;;;30.97;28.40;;;6.60;99.90;;;;;;5054390;28;20498;-67
2021/12/05 12:49:25;;;;;;;29.40;27.10;;;6.80;99.90;;;;;;5050719;28;20468;-67
2021/12/05 12:51:56;;;;;;;27.90;25.20;;;6.80;99.90;;;;;;5049566;28;20485;-67
2021/12/05 12:54:27;;;;;;;26.63;24.63;;;6.80;99.90;;;;;;5052231;28;20469;-67
2021/12/05 12:57:11;;;;;;;25.37;23.57;;;6.80;99.90;;;;;;5052092;28;20506;-68
2021/12/05 12:59:41;;;;;;;27.40;25.30;;;6.90;99.90;;;;;;5050655;28;20840;-67
2021/12/05 13:02:36;;;;;;;24.40;22.57;;;6.80;99.90;;;;;;5053623;28;20461;-68
2021/12/05 13:05:21;;;;;;;26.80;24.67;;;6.70;99.90;;;;;;5056016;28;20466;-68
2021/12/05 13:10:36;;;;;;;25.70;23.60;;;6.70;99.90;;;;;;5054423;28;20821;-68
2021/12/05 13:13:10;;;;;;;25.20;23.13;;;6.60;99.90;;;;;;5050490;28;20469;-67
2021/12/05 13:15:45;;;;;;;26.50;24.07;;;6.60;99.90;;;;;;5049369;28;20905;-67
2021/12/05 13:18:29;;;;;;;26.33;24.53;;;5.80;99.90;;;;;;5055953;28;20935;-67
2021/12/05 13:21:04;;;;;;;27.70;25.80;;;5.70;99.90;;;;;;5056398;28;20472;-67
2021/12/05 13:23:36;;;;;;;25.60;23.80;;;5.70;99.90;;;;;;5047874;28;20466;-69
2021/12/05 13:26:28;;;;;;;25.87;24.07;;;5.50;99.90;;;;;;5044214;28;20562;-68
2021/12/05 13:28:59;;;;;;;25.60;23.90;;;5.20;99.90;;;;;;5047049;28;20460;-69
2021/12/05 13:31:33;;;;;;;24.60;23.00;;;5.20;99.90;;;;;;5054142;28;20977;-69
2021/12/05 13:34:29;;;;;;;25.80;23.90;;;5.30;99.90;;;;;;5055679;28;20917;-69
2021/12/05 13:37:00;;;;;;;27.70;25.47;;;5.40;99.90;;;;;;5054171;28;20996;-69
2021/12/05 13:39:39;;;;;;;25.33;23.73;;;5.40;99.90;;;;;;5050634;28;20623;-69
2021/12/05 13:42:10;;;;;;;26.63;24.73;;;5.60;99.90;;;;;;5044041;28;20468;-69
2021/12/05 13:45:11;;;;;;;28.20;26.10;;;5.70;99.90;;;;;;5049270;28;20486;-68
2021/12/05 13:47:42;;;;;;;27.33;25.43;;;5.70;99.90;;;;;;5052645;28;20495;-72
2021/12/05 13:50:44;;;;;;;25.77;24.00;;;5.80;99.90;;;;;;5053336;28;20460;-71
2021/12/05 13:53:28;;;;;;;27.40;25.30;;;5.90;99.90;;;;;;4987938;28;20460;-70
2021/12/05 13:56:23;;;;;;;26.40;24.67;;;6.00;99.90;;;;;;4985907;28;20875;-71
2021/12/05 13:58:51;;;;;;;24.80;22.90;;;6.00;99.90;;;;;;5033296;28;21085;-70
2021/12/05 14:01:29;;;;;;;23.50;22.00;;;5.90;99.90;;;;;;5044696;28;20991;-71
2021/12/05 14:04:09;;;;;;;24.23;22.60;;;5.80;99.90;;;;;;5043622;28;20460;-71
2021/12/05 14:06:54;;;;;;;24.47;22.87;;;5.70;99.90;;;;;;5053228;28;21075;-71
2021/12/05 14:09:39;;;;;;;24.53;22.93;;;5.70;99.90;;;;;;5056243;28;20999;-69
2021/12/05 14:12:13;;;;;;;24.57;22.87;;;5.70;99.90;;;;;;5055059;28;20468;-69
2021/12/05 14:14:43;;;;;;;23.43;21.63;;;5.70;99.90;;;;;;5052825;28;20881;-69
2021/12/05 14:17:13;;;;;;;24.57;22.80;;;5.70;99.90;;;;;;5056281;28;20615;-69
2021/12/05 14:19:43;;;;;;;24.33;22.70;;;5.70;99.90;;;;;;5055493;28;20464;-69
2021/12/05 14:22:13;;;;;;;25.63;23.83;;;5.70;99.90;;;;;;5052725;28;20976;-69
2021/12/05 14:24:42;;;;;;;24.70;23.00;;;5.80;99.90;;;;;;5051405;28;20494;-69
2021/12/05 14:27:12;;;;;;;24.43;22.73;;;5.90;99.90;;;;;;5060718;28;20769;-69
2021/12/05 14:29:40;;;;;;;24.80;23.10;;;5.90;99.90;;;;;;5051463;28;20464;-69
2021/12/05 14:32:12;;;;;;;23.80;22.20;;;5.90;99.90;;;;;;5052862;28;20665;-69
2021/12/05 14:34:40;;;;;;;24.60;22.90;;;5.90;99.90;;;;;;5054233;28;20558;-70
2021/12/05 14:37:12;;;;;;;25.13;23.07;;;5.90;99.90;;;;;;5057610;28;20464;-69
2021/12/05 14:39:42;;;;;;;23.93;22.43;;;5.80;99.90;;;;;;5052420;28;20484;-69
2021/12/05 14:42:11;;;;;;;24.13;22.43;;;5.80;99.90;;;;;;5047030;28;20562;-71
2021/12/05 14:44:40;;;;;;;25.63;23.47;;;5.80;99.90;;;;;;5051473;28;20487;-69
2021/12/05 14:47:09;;;;;;;32.23;29.37;;;5.70;99.90;;;;;;5052860;28;20523;-71
2021/12/05 14:49:40;;;;;;;32.17;29.30;;;5.70;99.90;;;;;;5050238;28;20466;-71
2021/12/05 14:52:10;;;;;;;34.80;31.50;;;5.60;99.90;;;;;;5053815;28;20483;-71
2021/12/05 14:54:39;;;;;;;32.43;29.53;;;5.50;99.90;;;;;;5055635;28;20459;-71
2021/12/05 14:57:08;;;;;;;26.80;24.50;;;5.50;99.90;;;;;;5050366;28;20928;-71
2021/12/05 14:59:36;;;;;;;27.83;25.83;;;5.50;99.90;;;;;;5052790;28;20825;-70
2021/12/05 15:02:05;;;;;;;25.23;23.43;;;5.40;99.90;;;;;;5060237;28;20817;-71
2021/12/05 15:04:35;;;;;;;25.90;23.90;;;5.40;99.90;;;;;;5053027;28;20533;-71
2021/12/05 15:07:04;;;;;;;24.70;23.00;;;5.50;99.90;;;;;;5046866;28;20856;-71
2021/12/05 15:09:35;;;;;;;25.30;23.50;;;5.40;99.90;;;;;;5045378;28;20468;-71
2021/12/05 15:12:07;;;;;;;24.03;22.53;;;5.50;99.90;;;;;;5051478;28;20472;-71
2021/12/05 15:14:37;;;;;;;23.97;22.30;;;5.40;99.90;;;;;;5053959;28;20463;-71
2021/12/05 15:17:08;;;;;;;23.80;22.30;;;5.20;99.90;;;;;;5051211;28;20844;-71
2021/12/05 15:19:37;;;;;;;24.30;22.60;;;5.20;99.90;;;;;;5048581;28;20475;-69
2021/12/05 15:22:07;;;;;;;25.33;23.63;;;5.10;99.90;;;;;;5048901;28;20474;-68
2021/12/05 15:24:35;;;;;;;24.57;23.00;;;5.00;99.90;;;;;;5056377;28;20471;-69
2021/12/05 15:27:04;;;;;;;25.30;23.60;;;4.90;99.90;;;;;;5057482;28;20605;-68
2021/12/05 15:29:32;;;;;;;25.03;23.43;;;4.90;99.90;;;;;;5057055;28;20463;-68
2021/12/05 15:31:59;;;;;;;25.27;23.67;;;4.90;99.90;;;;;;5057919;28;20494;-68
2021/12/05 15:34:33;;;;;;;25.37;23.77;;;4.90;99.90;;;;;;5061340;28;20483;-70
2021/12/05 15:37:07;;;;;;;25.77;23.97;;;4.90;99.90;;;;;;5060689;28;20474;-70
2021/12/05 15:39:36;;;;;;;25.67;23.97;;;5.00;99.90;;;;;;5061416;28;20560;-73
2021/12/05 15:42:15;;;;;;;26.47;24.73;;;5.00;99.90;;;;;;5062573;28;20468;-74
2021/12/05 15:44:43;;;;;;;25.53;23.73;;;5.10;99.90;;;;;;5064395;28;20483;-71
2021/12/05 15:47:13;;;;;;;26.53;24.63;;;5.10;99.90;;;;;;5051537;28;21122;-71
2021/12/05 15:49:59;;;;;;;25.97;24.27;;;5.20;99.90;;;;;;5047721;28;20456;-70
2021/12/05 15:52:32;;;;;;;24.67;23.17;;;5.20;99.90;;;;;;5041359;28;20987;-67
2021/12/05 15:55:02;;;;;;;25.47;23.87;;;5.20;99.90;;;;;;5048966;28;20912;-70
2021/12/05 15:57:34;;;;;;;25.83;24.20;;;5.20;99.90;;;;;;5060212;28;20468;-73
2021/12/05 16:00:12;;;;;;;25.50;23.70;;;5.10;99.90;;;;;;5044763;28;20793;-70
2021/12/05 16:02:41;;;;;;;26.77;24.97;;;5.00;99.90;;;;;;5041968;28;20456;-69
2021/12/05 16:05:19;;;;;;;28.07;25.87;;;4.90;99.90;;;;;;5052542;28;20468;-68
2021/12/05 16:07:47;;;;;;;27.80;25.67;;;4.90;99.90;;;;;;5049817;28;20484;-68
2021/12/05 16:10:21;;;;;;;27.73;25.83;;;4.90;99.90;;;;;;5054831;28;20471;-72
2021/12/05 16:12:50;;;;;;;28.80;26.80;;;4.80;99.90;;;;;;5054993;28;20466;-70
2021/12/05 16:15:20;;;;;;;29.20;26.90;;;4.70;99.90;;;;;;5055418;28;20461;-71
2021/12/05 16:17:56;;;;;;;34.93;31.73;;;4.70;99.90;;;;;;5057831;28;20455;-70
2021/12/05 16:20:27;;;;;;;33.63;30.90;;;4.60;99.90;;;;;;5057035;28;20464;-71
2021/12/05 16:23:06;;;;;;;31.27;28.83;;;4.60;99.90;;;;;;5053600;28;20464;-68
2021/12/05 16:25:36;;;;;;;31.77;29.07;;;4.50;99.90;;;;;;5047461;28;20467;-69
2021/12/05 16:28:06;;;;;;;30.10;27.93;;;4.50;99.90;;;;;;5062314;28;20496;-69
2021/12/05 16:30:39;;;;;;;30.37;28.17;;;4.50;99.90;;;;;;5057167;28;20540;-70
2021/12/05 16:33:07;;;;;;;30.10;27.70;;;4.50;99.90;;;;;;5052023;28;20470;-69
2021/12/05 16:35:37;;;;;;;28.43;26.40;;;4.50;99.90;;;;;;5054174;28;20467;-70
2021/12/05 16:38:23;;;;;;;30.47;28.23;;;4.50;99.90;;;;;;5053235;28;20519;-71
2021/12/05 16:41:03;;;;;;;28.53;26.43;;;4.50;99.90;;;;;;5047977;28;20506;-71
2021/12/05 16:43:33;;;;;;;28.93;26.80;;;4.50;99.90;;;;;;5049658;28;20454;-69
2021/12/05 16:46:11;;;;;;;28.20;25.70;;;4.60;99.90;;;;;;5059002;28;20805;-71
2021/12/05 16:48:40;;;;;;;28.63;26.50;;;4.60;99.90;;;;;;5060355;28;20823;-71
2021/12/05 16:51:13;;;;;;;28.53;26.30;;;4.70;99.90;;;;;;5054196;28;20448;-72
2021/12/05 16:53:44;;;;;;;28.37;26.47;;;4.70;99.90;;;;;;5052178;28;20799;-70
2021/12/05 16:56:16;;;;;;;29.80;27.37;;;4.70;99.90;;;;;;5055625;28;20512;-73
2021/12/05 16:58:44;;;;;;;29.47;27.07;;;4.70;99.90;;;;;;5050742;28;20497;-69